createdAt,value
2022-09-12T00:01:40.125Z,14.83
2022-09-12T00:04:06.847Z,14.84
2022-09-12T00:06:35.713Z,14.83
2022-09-12T00:09:06.352Z,14.74
2022-09-12T00:11:36.936Z,14.74
2022-09-12T00:14:05.108Z,14.65
2022-09-12T00:16:34.844Z,14.74
2022-09-12T00:19:02.618Z,14.75
2022-09-12T00:21:30.455Z,14.70
2022-09-12T00:23:57.084Z,14.56
2022-09-12T00:26:24.507Z,14.63
2022-09-12T00:28:51.878Z,14.64
2022-09-12T00:31:24.230Z,14.66
2022-09-12T00:33:51.561Z,14.61
2022-09-12T00:36:20.634Z,14.59
2022-09-12T00:38:49.548Z,14.59
2022-09-12T00:41:21.022Z,14.55
2022-09-12T00:43:53.947Z,14.59
2022-09-12T00:46:46.381Z,14.53
2022-09-12T00:49:44.855Z,14.50
2022-09-12T00:52:54.199Z,14.45
2022-09-12T00:55:38.455Z,14.46
2022-09-12T00:58:13.798Z,14.46
2022-09-12T01:01:00.735Z,14.46
2022-09-12T01:03:48.011Z,14.33
2022-09-12T01:06:41.196Z,14.32
2022-09-12T01:09:28.088Z,14.25
2022-09-12T01:12:15.563Z,14.15
2022-09-12T01:15:02.012Z,14.20
2022-09-12T01:17:39.114Z,14.14
2022-09-12T01:20:05.939Z,14.20
2022-09-12T01:22:51.837Z,14.13
2022-09-12T01:25:27.636Z,14.14
2022-09-12T01:28:09.151Z,14.12
2022-09-12T01:30:48.459Z,14.09
2022-09-12T01:33:20.769Z,14.06
2022-09-12T01:36:02.640Z,14.06
2022-09-12T01:38:42.923Z,14.04
2022-09-12T01:41:30.733Z,14.05
2022-09-12T01:44:22.816Z,14.03
2022-09-12T01:47:16.311Z,13.90
2022-09-12T01:50:02.947Z,14.00
2022-09-12T01:52:45.452Z,14.04
2022-09-12T01:55:27.260Z,14.01
2022-09-12T01:58:05.082Z,13.97
2022-09-12T02:00:36.087Z,13.92
2022-09-12T02:03:16.667Z,13.97
2022-09-12T02:05:52.918Z,14.00
2022-09-12T02:08:25.737Z,13.95
2022-09-12T02:10:56.562Z,13.92
2022-09-12T02:13:32.726Z,13.98
2022-09-12T02:16:08.043Z,13.86
2022-09-12T02:18:39.067Z,13.92
2022-09-12T02:21:07.538Z,13.93
2022-09-12T02:23:38.138Z,13.91
2022-09-12T02:26:16.354Z,13.84
2022-09-12T02:28:43.553Z,13.90
2022-09-12T02:31:38.218Z,13.93
2022-09-12T02:34:20.303Z,13.92
2022-09-12T02:36:56.417Z,13.90
2022-09-12T02:39:24.731Z,13.91
2022-09-12T02:41:53.270Z,13.96
2022-09-12T02:44:20.650Z,13.88
2022-09-12T02:46:52.500Z,13.82
2022-09-12T02:49:19.029Z,13.84
2022-09-12T02:51:47.163Z,13.86
2022-09-12T02:54:17.073Z,13.78
2022-09-12T02:56:45.544Z,13.81
2022-09-12T02:59:17.663Z,13.80
2022-09-12T03:02:03.012Z,13.80
2022-09-12T03:04:54.506Z,13.66
2022-09-12T03:07:52.602Z,13.71
2022-09-12T03:10:39.503Z,13.72
2022-09-12T03:13:24.086Z,13.67
2022-09-12T03:16:17.599Z,13.69
2022-09-12T03:18:58.029Z,13.66
2022-09-12T03:21:41.910Z,13.64
2022-09-12T03:24:11.808Z,13.63
2022-09-12T03:27:02.720Z,13.66
2022-09-12T03:29:31.087Z,13.60
2022-09-12T03:31:59.055Z,13.57
2022-09-12T03:34:27.919Z,13.49
2022-09-12T03:36:55.407Z,13.53
2022-09-12T03:39:24.427Z,13.56
2022-09-12T03:41:51.780Z,13.55
2022-09-12T03:44:18.990Z,13.49
2022-09-12T03:46:45.783Z,13.53
2022-09-12T03:49:13.129Z,13.54
2022-09-12T03:51:39.935Z,13.45
2022-09-12T03:54:07.124Z,13.51
2022-09-12T03:56:34.757Z,13.57
2022-09-12T03:59:02.066Z,13.49
2022-09-12T04:01:28.466Z,13.49
2022-09-12T04:03:55.132Z,13.39
2022-09-12T04:06:22.880Z,13.34
2022-09-12T04:08:52.080Z,13.35
2022-09-12T04:11:21.132Z,13.26
2022-09-12T04:13:48.019Z,13.29
2022-09-12T04:16:17.708Z,13.30
2022-09-12T04:18:45.102Z,13.26
2022-09-12T04:21:17.906Z,13.32
2022-09-12T04:23:44.767Z,13.33
2022-09-12T04:26:13.639Z,13.35
2022-09-12T04:28:40.576Z,13.31
2022-09-12T04:31:13.359Z,13.29
2022-09-12T04:33:40.041Z,13.31
2022-09-12T04:36:09.021Z,13.25
2022-09-12T04:38:36.385Z,13.18
2022-09-12T04:41:16.564Z,13.19
2022-09-12T04:43:43.579Z,13.18
2022-09-12T04:46:11.398Z,13.22
2022-09-12T04:48:38.007Z,13.17
2022-09-12T04:51:21.202Z,13.16
2022-09-12T04:53:50.318Z,13.13
2022-09-12T04:56:17.479Z,13.11
2022-09-12T04:58:44.261Z,13.10
2022-09-12T05:01:14.442Z,13.08
2022-09-12T05:03:45.229Z,13.08
2022-09-12T05:06:14.362Z,13.03
2022-09-12T05:08:41.458Z,13.02
2022-09-12T05:11:11.546Z,13.07
2022-09-12T05:13:38.827Z,13.13
2022-09-12T05:16:06.753Z,13.10
2022-09-12T05:18:35.244Z,13.10
2022-09-12T05:21:04.067Z,13.05
2022-09-12T05:23:31.068Z,13.07
2022-09-12T05:25:59.489Z,13.06
2022-09-12T05:28:30.369Z,13.11
2022-09-12T05:31:08.312Z,13.11
2022-09-12T05:33:36.591Z,13.10
2022-09-12T05:36:06.337Z,13.11
2022-09-12T05:38:36.463Z,13.10
2022-09-12T05:41:16.977Z,13.12
2022-09-12T05:43:46.227Z,13.16
2022-09-12T05:46:19.058Z,13.11
2022-09-12T05:48:47.371Z,13.20
2022-09-12T05:51:19.076Z,13.21
2022-09-12T05:53:47.736Z,13.28
2022-09-12T05:56:17.188Z,13.35
2022-09-12T05:58:46.861Z,13.37
2022-09-12T06:01:18.161Z,13.50
2022-09-12T06:03:49.330Z,13.52
2022-09-12T06:06:16.967Z,13.55
2022-09-12T06:08:46.689Z,13.59
2022-09-12T06:11:18.916Z,13.55
2022-09-12T06:13:45.659Z,13.68
2022-09-12T06:16:18.257Z,13.74
2022-09-12T06:18:50.412Z,13.76
2022-09-12T06:21:17.106Z,13.84
2022-09-12T06:23:45.726Z,13.83
2022-09-12T06:26:12.843Z,13.82
2022-09-12T06:28:41.701Z,13.83
2022-09-12T06:31:12.153Z,14.04
2022-09-12T06:33:40.945Z,14.00
2022-09-12T06:36:12.543Z,14.07
2022-09-12T06:38:40.688Z,14.18
2022-09-12T06:41:12.175Z,14.16
2022-09-12T06:43:40.551Z,14.25
2022-09-12T06:46:08.107Z,14.32
2022-09-12T06:48:38.306Z,14.39
2022-09-12T06:51:13.501Z,14.44
2022-09-12T06:53:41.071Z,14.57
2022-09-12T06:56:11.931Z,14.72
2022-09-12T06:58:38.953Z,14.87
2022-09-12T07:01:15.628Z,14.86
2022-09-12T07:03:43.459Z,14.96
2022-09-12T07:06:15.613Z,15.12
2022-09-12T07:08:42.962Z,15.24
2022-09-12T07:11:13.876Z,15.49
2022-09-12T07:13:41.656Z,15.63
2022-09-12T07:16:10.184Z,15.74
2022-09-12T07:18:38.564Z,15.87
2022-09-12T07:21:08.006Z,15.96
2022-09-12T07:23:34.858Z,16.06
2022-09-12T07:26:02.137Z,16.34
2022-09-12T07:28:30.979Z,16.55
2022-09-12T07:30:58.661Z,16.66
2022-09-12T07:33:28.341Z,16.84
2022-09-12T07:35:55.284Z,16.94
2022-09-12T07:38:21.825Z,16.96
2022-09-12T07:40:48.384Z,17.19
2022-09-12T07:43:15.007Z,17.16
2022-09-12T07:45:42.275Z,17.20
2022-09-12T07:48:09.569Z,17.34
2022-09-12T07:50:36.910Z,17.50
2022-09-12T07:53:04.570Z,17.71
2022-09-12T07:55:31.540Z,17.80
2022-09-12T07:57:58.790Z,17.96
2022-09-12T08:00:25.521Z,17.78
2022-09-12T08:02:53.292Z,17.86
2022-09-12T08:05:23.213Z,18.00
2022-09-12T08:07:49.687Z,18.29
2022-09-12T08:10:16.182Z,18.17
2022-09-12T08:12:43.163Z,18.39
2022-09-12T08:15:09.861Z,18.63
2022-09-12T08:17:36.641Z,18.73
2022-09-12T08:20:04.155Z,18.91
2022-09-12T08:22:31.323Z,18.91
2022-09-12T08:24:58.553Z,18.81
2022-09-12T08:27:25.660Z,19.03
2022-09-12T08:29:53.664Z,19.30
2022-09-12T08:32:20.489Z,19.49
2022-09-12T08:34:47.115Z,19.68
2022-09-12T08:37:13.530Z,19.81
2022-09-12T08:39:39.968Z,19.79
2022-09-12T08:42:06.993Z,20.00
2022-09-12T08:45:02.581Z,20.12
2022-09-12T08:47:33.782Z,19.90
2022-09-12T08:50:12.507Z,20.04
2022-09-12T08:52:50.321Z,20.28
2022-09-12T08:55:44.461Z,20.20
2022-09-12T08:58:24.082Z,20.55
2022-09-12T09:00:50.834Z,20.55
2022-09-12T09:03:45.770Z,20.58
2022-09-12T09:06:36.468Z,20.52
2022-09-12T09:09:08.435Z,21.01
2022-09-12T09:11:37.788Z,20.90
2022-09-12T09:14:41.758Z,21.23
2022-09-12T09:17:20.093Z,21.83
2022-09-12T09:19:52.712Z,21.97
2022-09-12T09:22:33.126Z,21.84
2022-09-12T09:25:06.038Z,22.00
2022-09-12T09:27:41.887Z,22.30
2022-09-12T09:30:17.842Z,21.68
2022-09-12T09:32:49.726Z,21.94
2022-09-12T09:35:36.192Z,22.35
2022-09-12T09:38:34.496Z,22.68
2022-09-12T09:41:21.266Z,22.45
2022-09-12T09:43:48.498Z,22.87
2022-09-12T09:46:15.114Z,22.77
2022-09-12T09:48:46.145Z,22.48
2022-09-12T09:51:15.279Z,22.68
2022-09-12T09:53:48.295Z,23.22
2022-09-12T09:56:30.753Z,23.35
2022-09-12T09:58:57.238Z,23.52
2022-09-12T10:01:24.715Z,23.49
2022-09-12T10:03:55.962Z,23.67
2022-09-12T10:06:34.501Z,24.09
2022-09-12T10:09:26.971Z,24.01
2022-09-12T10:11:55.846Z,23.44
2022-09-12T10:14:40.402Z,23.55
2022-09-12T10:17:34.330Z,23.63
2022-09-12T10:20:20.541Z,23.69
2022-09-12T10:22:48.907Z,23.79
2022-09-12T10:25:18.660Z,23.60
2022-09-12T10:27:53.437Z,23.90
2022-09-12T10:30:21.715Z,24.51
2022-09-12T10:32:54.394Z,24.51
2022-09-12T10:35:24.371Z,24.44
2022-09-12T10:38:00.015Z,24.79
2022-09-12T10:40:30.971Z,24.95
2022-09-12T10:42:59.600Z,24.20
2022-09-12T10:45:30.970Z,24.17
2022-09-12T10:48:04.158Z,24.04
2022-09-12T10:50:43.401Z,24.18
2022-09-12T10:53:13.292Z,24.57
2022-09-12T10:55:42.694Z,24.86
2022-09-12T10:58:29.025Z,25.16
2022-09-12T11:01:23.544Z,25.04
2022-09-12T11:04:06.091Z,24.69
2022-09-12T11:07:11.866Z,24.91
2022-09-12T11:09:47.771Z,25.43
2022-09-12T11:12:26.776Z,25.42
2022-09-12T11:15:07.861Z,25.83
2022-09-12T11:18:16.100Z,26.14
2022-09-12T11:20:58.869Z,25.57
2022-09-12T11:23:37.432Z,25.87
2022-09-12T11:26:22.985Z,26.10
2022-09-12T11:29:16.476Z,26.80
2022-09-12T11:32:01.681Z,25.95
2022-09-12T11:35:01.735Z,26.13
2022-09-12T11:37:52.701Z,26.91
2022-09-12T11:40:20.349Z,26.80
2022-09-12T11:42:51.535Z,26.32
2022-09-12T11:45:21.074Z,26.16
2022-09-12T11:47:55.313Z,26.27
2022-09-12T11:50:27.093Z,26.28
2022-09-12T11:52:57.851Z,26.43
2022-09-12T11:55:29.805Z,27.35
2022-09-12T11:57:58.682Z,27.54
2022-09-12T12:00:44.273Z,27.36
2022-09-12T12:03:23.616Z,27.26
2022-09-12T12:05:57.740Z,27.75
2022-09-12T12:08:30.883Z,27.17
2022-09-12T12:11:02.741Z,26.60
2022-09-12T12:13:43.082Z,27.60
2022-09-12T12:16:40.062Z,26.51
2022-09-12T12:19:15.659Z,27.48
2022-09-12T12:21:47.776Z,27.95
2022-09-12T12:24:25.155Z,28.18
2022-09-12T12:26:55.840Z,28.98
2022-09-12T12:29:22.380Z,29.46
2022-09-12T12:32:03.963Z,30.11
2022-09-12T12:34:38.161Z,30.17
2022-09-12T12:37:20.073Z,29.55
2022-09-12T12:39:53.781Z,30.16
2022-09-12T12:42:35.741Z,29.37
2022-09-12T12:45:04.435Z,29.44
2022-09-12T12:47:40.284Z,30.15
2022-09-12T12:50:16.050Z,30.64
2022-09-12T12:53:22.591Z,29.81
2022-09-12T12:55:53.153Z,29.38
2022-09-12T12:58:37.146Z,30.59
2022-09-12T13:01:09.639Z,30.45
2022-09-12T13:03:38.259Z,29.72
2022-09-12T13:06:21.408Z,30.57
2022-09-12T13:09:00.228Z,30.79
2022-09-12T13:11:33.861Z,30.65
2022-09-12T13:14:27.501Z,30.42
2022-09-12T13:16:58.476Z,30.91
2022-09-12T13:19:32.368Z,30.94
2022-09-12T13:22:06.554Z,31.05
2022-09-12T13:24:34.430Z,31.50
2022-09-12T13:27:02.075Z,31.14
2022-09-12T13:29:29.026Z,31.10
2022-09-12T13:32:01.124Z,31.95
2022-09-12T13:34:35.005Z,30.89
2022-09-12T13:37:16.688Z,30.58
2022-09-12T13:39:54.171Z,30.68
2022-09-12T13:42:38.329Z,31.49
2022-09-12T13:45:17.325Z,31.92
2022-09-12T13:47:51.882Z,31.48
2022-09-12T13:50:24.465Z,30.23
2022-09-12T13:52:58.382Z,31.16
2022-09-12T13:55:37.375Z,29.73
2022-09-12T13:58:06.177Z,31.16
2022-09-12T14:00:34.813Z,31.18
2022-09-12T14:03:20.991Z,32.38
2022-09-12T14:05:56.876Z,32.58
2022-09-12T14:08:23.840Z,32.91
2022-09-12T14:10:50.980Z,32.03
2022-09-12T14:13:21.304Z,32.79
2022-09-12T14:15:52.549Z,32.51
2022-09-12T14:18:28.530Z,32.17
2022-09-12T14:21:01.402Z,32.97
2022-09-12T14:23:30.524Z,33.18
2022-09-12T14:25:59.010Z,32.15
2022-09-12T14:28:30.108Z,31.98
2022-09-12T14:31:18.931Z,32.30
2022-09-12T14:33:51.269Z,32.59
2022-09-12T14:36:28.360Z,32.66
2022-09-12T14:39:02.195Z,32.51
2022-09-12T14:41:33.369Z,33.58
2022-09-12T14:44:04.138Z,33.63
2022-09-12T14:46:35.139Z,32.23
2022-09-12T14:49:10.374Z,32.09
2022-09-12T14:51:49.384Z,32.65
2022-09-12T14:54:30.186Z,33.26
2022-09-12T14:56:59.646Z,33.00
2022-09-12T14:59:28.260Z,33.50
2022-09-12T15:02:13.993Z,33.53
2022-09-12T15:04:42.976Z,32.78
2022-09-12T15:07:25.934Z,32.44
2022-09-12T15:09:53.044Z,32.91
2022-09-12T15:12:19.485Z,34.18
2022-09-12T15:14:45.958Z,34.12
2022-09-12T15:17:12.498Z,34.36
2022-09-12T15:19:39.126Z,33.88
2022-09-12T15:22:05.723Z,34.30
2022-09-12T15:24:32.379Z,35.20
2022-09-12T15:26:58.963Z,34.07
2022-09-12T15:29:25.343Z,34.36
2022-09-12T15:31:51.779Z,34.41
2022-09-12T15:34:19.609Z,34.61
2022-09-12T15:36:46.050Z,34.23
2022-09-12T15:39:13.202Z,34.16
2022-09-12T15:41:39.742Z,34.19
2022-09-12T15:44:08.140Z,34.29
2022-09-12T15:46:34.675Z,34.31
2022-09-12T15:49:01.230Z,34.33
2022-09-12T15:51:27.737Z,34.48
2022-09-12T15:53:54.646Z,34.82
2022-09-12T15:56:22.185Z,34.81
2022-09-12T15:58:58.706Z,34.57
2022-09-12T16:01:27.177Z,34.60
2022-09-12T16:03:53.784Z,34.28
2022-09-12T16:06:20.263Z,34.58
2022-09-12T16:08:46.755Z,34.68
2022-09-12T16:11:31.474Z,34.55
2022-09-12T16:13:58.256Z,34.42
2022-09-12T16:16:24.796Z,34.49
2022-09-12T16:18:51.240Z,34.35
2022-09-12T16:21:17.820Z,34.54
2022-09-12T16:23:45.671Z,34.64
2022-09-12T16:26:12.300Z,34.59
2022-09-12T16:28:39.134Z,34.41
2022-09-12T16:31:07.363Z,34.54
2022-09-12T16:33:34.884Z,34.33
2022-09-12T16:36:07.287Z,34.29
2022-09-12T16:38:34.849Z,34.03
2022-09-12T16:41:06.470Z,33.28
2022-09-12T16:43:34.916Z,32.13
2022-09-12T16:46:02.967Z,31.31
2022-09-12T16:48:29.999Z,30.86
2022-09-12T16:50:58.480Z,30.24
2022-09-12T16:53:25.050Z,30.01
2022-09-12T16:55:51.576Z,29.60
2022-09-12T16:58:17.998Z,29.38
2022-09-12T17:00:44.667Z,29.19
2022-09-12T17:03:11.453Z,28.99
2022-09-12T17:05:38.277Z,28.76
2022-09-12T17:08:05.131Z,28.33
2022-09-12T17:10:32.563Z,28.01
2022-09-12T17:12:59.561Z,27.89
2022-09-12T17:15:26.102Z,27.48
2022-09-12T17:17:52.596Z,27.23
2022-09-12T17:20:19.620Z,27.01
2022-09-12T17:22:46.359Z,26.61
2022-09-12T17:25:12.916Z,26.56
2022-09-12T17:27:39.429Z,26.44
2022-09-12T17:30:06.964Z,26.23
2022-09-12T17:32:33.687Z,26.00
2022-09-12T17:35:00.153Z,25.78
2022-09-12T17:37:26.571Z,25.79
2022-09-12T17:39:53.106Z,25.53
2022-09-12T17:42:21.695Z,25.18
2022-09-12T17:44:48.197Z,25.06
2022-09-12T17:47:14.715Z,24.88
2022-09-12T17:49:41.164Z,24.70
2022-09-12T17:52:08.124Z,24.67
2022-09-12T17:54:34.750Z,24.58
2022-09-12T17:57:01.177Z,24.32
2022-09-12T17:59:27.673Z,24.24
2022-09-12T18:02:12.774Z,23.92
2022-09-12T18:04:41.150Z,23.68
2022-09-12T18:07:08.268Z,23.52
2022-09-12T18:09:36.138Z,23.39
2022-09-12T18:12:02.807Z,23.10
2022-09-12T18:14:29.299Z,22.94
2022-09-12T18:17:00.169Z,22.70
2022-09-12T18:19:27.682Z,22.75
2022-09-12T18:21:56.051Z,22.74
2022-09-12T18:24:22.732Z,22.43
2022-09-12T18:26:49.430Z,22.38
2022-09-12T18:29:16.944Z,22.21
2022-09-12T18:31:44.710Z,22.11
2022-09-12T18:34:13.635Z,22.05
2022-09-12T18:36:41.838Z,21.75
2022-09-12T18:39:08.738Z,21.51
2022-09-12T18:41:35.423Z,21.50
2022-09-12T18:44:02.545Z,21.33
2022-09-12T18:46:31.262Z,21.50
2022-09-12T18:48:59.009Z,21.23
2022-09-12T18:51:34.765Z,21.19
2022-09-12T18:54:12.661Z,21.18
2022-09-12T18:56:40.832Z,21.01
2022-09-12T18:59:07.671Z,21.09
2022-09-12T19:01:37.172Z,20.87
2022-09-12T19:04:05.028Z,20.82
2022-09-12T19:06:34.626Z,20.78
2022-09-12T19:09:06.711Z,20.41
2022-09-12T19:11:35.080Z,20.24
2022-09-12T19:14:02.030Z,20.32
2022-09-12T19:16:28.798Z,20.22
2022-09-12T19:18:56.538Z,20.05
2022-09-12T19:21:27.084Z,20.01
2022-09-12T19:23:57.770Z,20.07
2022-09-12T19:26:24.688Z,19.89
2022-09-12T19:28:51.429Z,19.72
2022-09-12T19:31:20.022Z,19.70
2022-09-12T19:33:47.195Z,19.54
2022-09-12T19:36:41.347Z,19.58
2022-09-12T19:39:05.229Z,19.62
2022-09-12T19:41:31.901Z,19.58
2022-09-12T19:43:58.957Z,19.56
2022-09-12T19:46:26.143Z,19.55
2022-09-12T19:48:53.383Z,19.46
2022-09-12T19:51:21.298Z,19.21
2022-09-12T19:53:50.034Z,18.99
2022-09-12T19:56:16.732Z,18.85
2022-09-12T19:58:45.888Z,18.88
2022-09-12T20:01:15.610Z,18.99
2022-09-12T20:03:43.014Z,19.06
2022-09-12T20:06:13.479Z,18.88
2022-09-12T20:08:42.092Z,18.73
2022-09-12T20:11:09.116Z,18.74
2022-09-12T20:13:35.641Z,18.44
2022-09-12T20:16:21.411Z,18.58
2022-09-12T20:18:53.717Z,18.58
2022-09-12T20:21:24.855Z,18.33
2022-09-12T20:23:51.271Z,18.37
2022-09-12T20:26:20.056Z,18.31
2022-09-12T20:28:46.548Z,18.31
2022-09-12T20:31:15.820Z,18.18
2022-09-12T20:33:42.793Z,18.20
2022-09-12T20:36:12.238Z,18.16
2022-09-12T20:38:39.060Z,18.10
2022-09-12T20:41:08.353Z,17.95
2022-09-12T20:43:35.405Z,18.00
2022-09-12T20:46:10.227Z,18.03
2022-09-12T20:48:39.815Z,17.90
2022-09-12T20:51:06.752Z,17.92
2022-09-12T20:53:35.318Z,17.72
2022-09-12T20:56:03.428Z,17.71
2022-09-12T20:58:30.028Z,17.63
2022-09-12T21:00:57.160Z,17.63
2022-09-12T21:03:25.285Z,17.50
2022-09-12T21:05:52.127Z,17.57
2022-09-12T21:08:18.843Z,17.36
2022-09-12T21:10:45.341Z,17.37
2022-09-12T21:13:13.193Z,17.26
2022-09-12T21:15:41.018Z,17.16
2022-09-12T21:18:08.015Z,17.10
2022-09-12T21:20:34.865Z,16.92
2022-09-12T21:23:01.395Z,17.05
2022-09-12T21:25:29.248Z,17.14
2022-09-12T21:27:55.870Z,17.06
2022-09-12T21:30:22.877Z,17.01
2022-09-12T21:32:49.582Z,16.97
2022-09-12T21:35:16.363Z,16.98
2022-09-12T21:37:43.142Z,17.14
2022-09-12T21:40:10.087Z,17.20
2022-09-12T21:42:37.163Z,17.20
2022-09-12T21:45:03.894Z,17.23
2022-09-12T21:47:30.842Z,17.11
2022-09-12T21:49:58.298Z,17.22
2022-09-12T21:52:25.032Z,17.16
2022-09-12T21:54:51.678Z,17.05
2022-09-12T21:57:18.110Z,17.00
2022-09-12T21:59:44.571Z,17.05
2022-09-12T22:02:12.290Z,17.05
2022-09-12T22:04:38.771Z,17.02
2022-09-12T22:07:05.769Z,16.94
2022-09-12T22:09:34.480Z,17.05
2022-09-12T22:12:02.752Z,16.95
2022-09-12T22:14:29.788Z,16.94
2022-09-12T22:16:56.964Z,17.02
2022-09-12T22:19:23.777Z,17.03
2022-09-12T22:22:09.569Z,17.10
2022-09-12T22:24:36.100Z,17.10
2022-09-12T22:27:05.525Z,17.05
2022-09-12T22:29:32.772Z,17.03
2022-09-12T22:32:00.045Z,17.04
2022-09-12T22:34:29.554Z,17.04
2022-09-12T22:36:56.607Z,16.88
2022-09-12T22:39:23.862Z,16.95
2022-09-12T22:41:50.809Z,16.94
2022-09-12T22:44:18.007Z,17.02
2022-09-12T22:46:45.265Z,16.98
2022-09-12T22:49:11.797Z,16.98
2022-09-12T22:51:39.065Z,16.97
2022-09-12T22:54:06.194Z,16.92
2022-09-12T22:56:33.351Z,16.93
2022-09-12T22:58:59.801Z,16.90
2022-09-12T23:01:26.522Z,16.72
2022-09-12T23:03:53.241Z,16.63
2022-09-12T23:06:19.688Z,16.44
2022-09-12T23:08:46.621Z,16.46
2022-09-12T23:11:15.999Z,16.50
2022-09-12T23:13:47.754Z,16.53
2022-09-12T23:16:23.177Z,16.48
2022-09-12T23:18:50.380Z,16.53
2022-09-12T23:21:19.157Z,16.53
2022-09-12T23:23:46.417Z,16.56
2022-09-12T23:26:15.861Z,16.49
2022-09-12T23:28:48.630Z,16.44
2022-09-12T23:31:16.947Z,16.46
2022-09-12T23:33:44.196Z,16.41
2022-09-12T23:36:14.458Z,16.30
2022-09-12T23:38:43.612Z,16.34
2022-09-12T23:41:11.814Z,16.40
2022-09-12T23:43:38.848Z,16.41
2022-09-12T23:46:06.758Z,16.38
2022-09-12T23:48:34.513Z,16.29
2022-09-12T23:51:02.211Z,16.31
2022-09-12T23:53:29.451Z,16.32
2022-09-12T23:55:56.809Z,16.23
2022-09-12T23:58:24.128Z,16.22
